createdAt,value
2022-08-27T00:00:15.063Z,96706.06
2022-08-27T00:02:42.933Z,96703.38
2022-08-27T00:05:13.836Z,96701.19
2022-08-27T00:07:41.156Z,96703.53
2022-08-27T00:10:10.861Z,96707.84
2022-08-27T00:12:37.820Z,96716.03
2022-08-27T00:15:06.660Z,96716.19
2022-08-27T00:17:34.145Z,96723.22
2022-08-27T00:20:01.826Z,96729.03
2022-08-27T00:22:28.402Z,96730.34
2022-08-27T00:24:54.933Z,96737.88
2022-08-27T00:27:21.575Z,96731.69
2022-08-27T00:29:48.462Z,96725.53
2022-08-27T00:32:16.426Z,96730.88
2022-08-27T00:34:43.202Z,96738.53
2022-08-27T00:37:09.773Z,96734.69
2022-08-27T00:39:37.133Z,96739.03
2022-08-27T00:42:07.420Z,96738.88
2022-08-27T00:44:34.846Z,96741.03
2022-08-27T00:47:06.914Z,96749.38
2022-08-27T00:49:56.632Z,96750.56
2022-08-27T00:52:36.728Z,96760.25
2022-08-27T00:55:09.039Z,96755.91
2022-08-27T00:57:40.630Z,96755.59
2022-08-27T01:00:12.244Z,96759.28
2022-08-27T01:02:38.888Z,96761.63
2022-08-27T01:05:13.422Z,96760.94
2022-08-27T01:07:43.359Z,96770.44
2022-08-27T01:10:14.738Z,96771.63
2022-08-27T01:12:41.908Z,96775.97
2022-08-27T01:15:14.944Z,96768.13
2022-08-27T01:17:47.882Z,96764.59
2022-08-27T01:20:29.476Z,96765.44
2022-08-27T01:23:01.716Z,96761.59
2022-08-27T01:25:29.417Z,96768.06
2022-08-27T01:27:58.984Z,96765.41
2022-08-27T01:30:25.695Z,96766.56
2022-08-27T01:32:52.828Z,96764.84
2022-08-27T01:35:20.655Z,96759.06
2022-08-27T01:37:49.859Z,96761.19
2022-08-27T01:40:19.523Z,96754.22
2022-08-27T01:42:50.470Z,96769.41
2022-08-27T01:45:39.288Z,96780.44
2022-08-27T01:48:08.156Z,96784.13
2022-08-27T01:50:38.938Z,96783.59
2022-08-27T01:53:18.475Z,96780.97
2022-08-27T01:55:48.275Z,96792.00
2022-08-27T01:58:15.505Z,96781.81
2022-08-27T02:00:45.389Z,96772.13
2022-08-27T02:03:12.866Z,96776.63
2022-08-27T02:05:44.577Z,96779.63
2022-08-27T02:08:12.901Z,96787.63
2022-08-27T02:10:40.078Z,96789.31
2022-08-27T02:13:08.194Z,96790.47
2022-08-27T02:15:37.249Z,96793.16
2022-08-27T02:18:05.208Z,96794.31
2022-08-27T02:20:31.886Z,96785.31
2022-08-27T02:22:58.660Z,96791.97
2022-08-27T02:25:27.576Z,96788.81
2022-08-27T02:27:54.664Z,96782.97
2022-08-27T02:30:24.189Z,96789.28
2022-08-27T02:32:53.050Z,96791.63
2022-08-27T02:35:22.569Z,96798.47
2022-08-27T02:37:50.222Z,96798.28
2022-08-27T02:40:19.083Z,96796.66
2022-08-27T02:42:46.617Z,96800.13
2022-08-27T02:45:15.036Z,96796.47
2022-08-27T02:47:41.615Z,96797.63
2022-08-27T02:50:09.033Z,96796.13
2022-08-27T02:52:35.938Z,96799.00
2022-08-27T02:55:03.572Z,96799.47
2022-08-27T02:57:31.400Z,96801.47
2022-08-27T03:00:05.713Z,96802.63
2022-08-27T03:02:32.304Z,96797.13
2022-08-27T03:04:58.968Z,96807.00
2022-08-27T03:07:25.515Z,96803.13
2022-08-27T03:09:52.493Z,96801.97
2022-08-27T03:12:19.464Z,96805.09
2022-08-27T03:14:49.206Z,96807.94
2022-08-27T03:17:34.156Z,96804.63
2022-08-27T03:20:02.061Z,96802.22
2022-08-27T03:22:28.645Z,96804.91
2022-08-27T03:24:56.421Z,96805.22
2022-08-27T03:27:22.993Z,96811.06
2022-08-27T03:29:49.813Z,96807.88
2022-08-27T03:32:16.362Z,96802.06
2022-08-27T03:34:42.951Z,96800.41
2022-08-27T03:37:09.483Z,96798.56
2022-08-27T03:39:36.020Z,96799.22
2022-08-27T03:42:02.816Z,96796.25
2022-08-27T03:44:29.484Z,96791.41
2022-08-27T03:46:56.064Z,96798.56
2022-08-27T03:49:23.092Z,96796.25
2022-08-27T03:51:52.349Z,96789.06
2022-08-27T03:54:19.008Z,96789.88
2022-08-27T03:56:45.585Z,96793.56
2022-08-27T03:59:12.361Z,96793.06
2022-08-27T04:01:39.026Z,96791.38
2022-08-27T04:04:05.622Z,96796.19
2022-08-27T04:06:35.055Z,96790.22
2022-08-27T04:09:01.846Z,96792.72
2022-08-27T04:11:29.406Z,96802.38
2022-08-27T04:13:56.523Z,96793.69
2022-08-27T04:16:23.098Z,96797.88
2022-08-27T04:18:49.743Z,96794.88
2022-08-27T04:21:16.242Z,96798.22
2022-08-27T04:23:43.157Z,96796.19
2022-08-27T04:26:11.193Z,96804.53
2022-08-27T04:28:38.802Z,96805.22
2022-08-27T04:31:06.826Z,96802.69
2022-08-27T04:33:39.823Z,96804.03
2022-08-27T04:36:08.467Z,96805.69
2022-08-27T04:38:35.015Z,96802.72
2022-08-27T04:41:22.377Z,96808.72
2022-08-27T04:43:55.698Z,96807.53
2022-08-27T04:46:31.350Z,96799.53
2022-08-27T04:49:00.152Z,96805.88
2022-08-27T04:51:27.832Z,96802.41
2022-08-27T04:53:54.992Z,96799.56
2022-08-27T04:56:23.706Z,96802.22
2022-08-27T04:58:51.831Z,96805.97
2022-08-27T05:01:20.784Z,96807.97
2022-08-27T05:03:47.981Z,96808.97
2022-08-27T05:06:15.043Z,96810.97
2022-08-27T05:08:41.842Z,96811.97
2022-08-27T05:11:11.226Z,96816.47
2022-08-27T05:13:38.909Z,96808.81
2022-08-27T05:16:08.615Z,96810.13
2022-08-27T05:18:47.708Z,96813.16
2022-08-27T05:21:19.556Z,96810.81
2022-08-27T05:23:47.437Z,96812.50
2022-08-27T05:26:14.997Z,96812.50
2022-08-27T05:28:41.573Z,96811.34
2022-08-27T05:31:11.385Z,96822.66
2022-08-27T05:33:41.385Z,96814.16
2022-08-27T05:36:14.523Z,96817.66
2022-08-27T05:38:42.505Z,96809.63
2022-08-27T05:41:14.583Z,96814.09
2022-08-27T05:43:45.410Z,96815.44
2022-08-27T05:46:17.334Z,96808.63
2022-08-27T05:48:43.954Z,96813.63
2022-08-27T05:51:25.384Z,96811.44
2022-08-27T05:54:04.518Z,96813.78
2022-08-27T05:56:35.914Z,96814.28
2022-08-27T05:59:21.779Z,96823.09
2022-08-27T06:01:51.073Z,96823.03
2022-08-27T06:04:19.097Z,96820.50
2022-08-27T06:06:46.388Z,96817.47
2022-08-27T06:09:17.088Z,96816.59
2022-08-27T06:11:44.429Z,96823.69
2022-08-27T06:14:11.047Z,96820.94
2022-08-27T06:16:38.607Z,96828.97
2022-08-27T06:19:06.571Z,96822.25
2022-08-27T06:21:34.183Z,96822.53
2022-08-27T06:24:01.358Z,96824.13
2022-08-27T06:26:28.372Z,96821.13
2022-08-27T06:28:55.330Z,96813.34
2022-08-27T06:31:25.906Z,96807.19
2022-08-27T06:33:54.545Z,96808.25
2022-08-27T06:36:25.584Z,96812.09
2022-08-27T06:38:54.379Z,96804.44
2022-08-27T06:41:24.172Z,96812.91
2022-08-27T06:43:51.204Z,96814.97
2022-08-27T06:46:19.436Z,96826.31
2022-08-27T06:48:47.039Z,96821.25
2022-08-27T06:51:19.465Z,96821.69
2022-08-27T06:53:47.276Z,96817.53
2022-08-27T06:56:17.727Z,96827.31
2022-08-27T06:58:44.913Z,96825.91
2022-08-27T07:01:23.599Z,96824.78
2022-08-27T07:03:51.041Z,96822.09
2022-08-27T07:06:18.246Z,96824.28
2022-08-27T07:08:53.385Z,96822.81
2022-08-27T07:11:21.206Z,96822.00
2022-08-27T07:13:49.000Z,96823.28
2022-08-27T07:16:19.153Z,96827.75
2022-08-27T07:18:46.755Z,96831.66
2022-08-27T07:21:13.696Z,96832.44
2022-08-27T07:23:40.490Z,96837.56
2022-08-27T07:26:09.697Z,96842.78
2022-08-27T07:28:38.120Z,96839.13
2022-08-27T07:31:10.222Z,96843.56
2022-08-27T07:33:40.325Z,96848.28
2022-08-27T07:36:12.616Z,96841.34
2022-08-27T07:38:39.165Z,96843.41
2022-08-27T07:41:11.798Z,96837.34
2022-08-27T07:43:57.262Z,96846.66
2022-08-27T07:46:25.541Z,96849.81
2022-08-27T07:48:53.290Z,96847.50
2022-08-27T07:51:22.574Z,96849.09
2022-08-27T07:53:49.211Z,96851.06
2022-08-27T07:56:16.696Z,96852.69
2022-08-27T07:58:43.599Z,96854.72
2022-08-27T08:01:10.988Z,96862.31
2022-08-27T08:03:38.190Z,96868.66
2022-08-27T08:06:08.098Z,96870.53
2022-08-27T08:08:36.677Z,96870.38
2022-08-27T08:11:06.116Z,96878.22
2022-08-27T08:13:32.736Z,96871.47
2022-08-27T08:15:59.657Z,96874.34
2022-08-27T08:18:28.852Z,96876.28
2022-08-27T08:21:03.440Z,96871.41
2022-08-27T08:23:30.203Z,96878.53
2022-08-27T08:25:57.738Z,96873.59
2022-08-27T08:28:24.882Z,96873.69
2022-08-27T08:30:52.581Z,96872.69
2022-08-27T08:33:19.259Z,96876.28
2022-08-27T08:35:46.386Z,96884.06
2022-08-27T08:38:12.942Z,96883.94
2022-08-27T08:40:43.112Z,96887.25
2022-08-27T08:43:31.453Z,96881.88
2022-08-27T08:46:04.301Z,96885.03
2022-08-27T08:48:31.357Z,96890.59
2022-08-27T08:51:05.495Z,96891.38
2022-08-27T08:53:47.227Z,96890.75
2022-08-27T08:56:25.401Z,96901.25
2022-08-27T08:59:09.093Z,96890.66
2022-08-27T09:01:35.757Z,96890.25
2022-08-27T09:04:07.306Z,96896.09
2022-08-27T09:07:02.525Z,96888.81
2022-08-27T09:09:38.044Z,96890.84
2022-08-27T09:12:22.267Z,96890.31
2022-08-27T09:15:17.300Z,96886.50
2022-08-27T09:17:45.440Z,96894.31
2022-08-27T09:20:25.763Z,96887.13
2022-08-27T09:23:21.931Z,96888.63
2022-08-27T09:25:48.645Z,96889.84
2022-08-27T09:28:39.451Z,96888.16
2022-08-27T09:31:19.862Z,96880.91
2022-08-27T09:33:56.070Z,96887.97
2022-08-27T09:36:24.329Z,96883.59
2022-08-27T09:39:04.331Z,96877.81
2022-08-27T09:41:36.349Z,96883.59
2022-08-27T09:44:10.067Z,96881.09
2022-08-27T09:46:36.678Z,96881.34
2022-08-27T09:49:14.677Z,96882.81
2022-08-27T09:51:44.425Z,96888.81
2022-08-27T09:54:11.827Z,96890.00
2022-08-27T09:56:50.723Z,96889.59
2022-08-27T09:59:24.054Z,96886.78
2022-08-27T10:01:53.787Z,96888.09
2022-08-27T10:04:50.199Z,96884.56
2022-08-27T10:07:26.173Z,96883.16
2022-08-27T10:09:57.554Z,96885.03
2022-08-27T10:12:55.201Z,96881.13
2022-08-27T10:15:25.217Z,96878.81
2022-08-27T10:18:05.451Z,96882.88
2022-08-27T10:20:39.514Z,96875.31
2022-08-27T10:23:24.799Z,96879.31
2022-08-27T10:26:24.378Z,96872.53
2022-08-27T10:29:14.536Z,96879.94
2022-08-27T10:32:06.226Z,96871.19
2022-08-27T10:34:47.958Z,96871.75
2022-08-27T10:37:25.049Z,96872.81
2022-08-27T10:40:18.402Z,96865.41
2022-08-27T10:42:57.858Z,96868.44
2022-08-27T10:45:36.400Z,96865.75
2022-08-27T10:48:18.064Z,96871.88
2022-08-27T10:50:50.515Z,96867.41
2022-08-27T10:53:39.432Z,96862.25
2022-08-27T10:56:13.956Z,96861.44
2022-08-27T10:59:00.806Z,96855.84
2022-08-27T11:01:51.555Z,96858.94
2022-08-27T11:04:50.119Z,96849.81
2022-08-27T11:07:29.660Z,96852.06
2022-08-27T11:09:57.217Z,96849.81
2022-08-27T11:12:44.497Z,96848.16
2022-08-27T11:15:31.474Z,96841.09
2022-08-27T11:18:08.341Z,96845.03
2022-08-27T11:20:45.070Z,96840.47
2022-08-27T11:23:23.298Z,96843.25
2022-08-27T11:26:02.103Z,96839.38
2022-08-27T11:28:38.791Z,96839.19
2022-08-27T11:31:34.668Z,96839.59
2022-08-27T11:34:14.372Z,96823.47
2022-08-27T11:36:56.136Z,96822.72
2022-08-27T11:39:51.945Z,96822.22
2022-08-27T11:42:42.152Z,96816.97
2022-08-27T11:45:20.133Z,96815.28
2022-08-27T11:47:55.803Z,96811.53
2022-08-27T11:50:24.433Z,96806.91
2022-08-27T11:53:05.763Z,96802.13
2022-08-27T11:55:38.497Z,96802.81
2022-08-27T11:58:07.281Z,96804.34
2022-08-27T12:00:39.836Z,96799.00
2022-08-27T12:03:22.589Z,96794.75
2022-08-27T12:05:55.235Z,96783.97
2022-08-27T12:08:21.844Z,96783.53
2022-08-27T12:11:10.538Z,96780.81
2022-08-27T12:14:13.557Z,96783.91
2022-08-27T12:17:10.168Z,96772.34
2022-08-27T12:19:36.601Z,96764.75
2022-08-27T12:22:15.088Z,96763.69
2022-08-27T12:24:41.605Z,96762.31
2022-08-27T12:27:14.347Z,96764.63
2022-08-27T12:30:04.905Z,96751.34
2022-08-27T12:32:33.400Z,96751.03
2022-08-27T12:36:01.602Z,96755.94
2022-08-27T12:38:34.904Z,96749.72
2022-08-27T12:41:09.208Z,96742.06
2022-08-27T12:43:43.939Z,96746.47
2022-08-27T12:46:19.590Z,96744.06
2022-08-27T12:49:09.959Z,96747.81
2022-08-27T12:51:46.218Z,96749.66
2022-08-27T12:54:40.884Z,96751.97
2022-08-27T12:57:13.077Z,96746.81
2022-08-27T13:00:26.627Z,96742.78
2022-08-27T13:03:02.746Z,96740.50
2022-08-27T13:05:42.355Z,96742.00
2022-08-27T13:08:22.656Z,96744.75
2022-08-27T13:10:50.819Z,96737.50
2022-08-27T13:13:20.329Z,96734.88
2022-08-27T13:15:50.691Z,96741.00
2022-08-27T13:18:17.955Z,96743.28
2022-08-27T13:20:52.653Z,96745.31
2022-08-27T13:23:27.277Z,96738.97
2022-08-27T13:26:12.112Z,96727.19
2022-08-27T13:28:42.115Z,96731.16
2022-08-27T13:31:13.083Z,96738.44
2022-08-27T13:33:41.356Z,96733.50
2022-08-27T13:36:09.638Z,96730.38
2022-08-27T13:38:41.611Z,96727.84
2022-08-27T13:41:20.170Z,96729.34
2022-08-27T13:43:49.062Z,96733.56
2022-08-27T13:46:19.802Z,96726.97
2022-08-27T13:48:49.987Z,96737.78
2022-08-27T13:51:26.042Z,96726.88
2022-08-27T13:54:11.486Z,96728.19
2022-08-27T13:56:49.677Z,96729.94
2022-08-27T13:59:19.338Z,96728.81
2022-08-27T14:02:00.126Z,96721.66
2022-08-27T14:04:34.521Z,96725.44
2022-08-27T14:07:07.942Z,96722.31
2022-08-27T14:09:34.526Z,96721.25
2022-08-27T14:12:04.614Z,96717.75
2022-08-27T14:14:36.879Z,96717.44
2022-08-27T14:17:04.725Z,96725.75
2022-08-27T14:19:36.461Z,96720.25
2022-08-27T14:22:04.405Z,96721.88
2022-08-27T14:24:31.013Z,96720.72
2022-08-27T14:27:07.809Z,96707.41
2022-08-27T14:29:34.371Z,96714.44
2022-08-27T14:32:00.880Z,96706.59
2022-08-27T14:34:28.141Z,96704.41
2022-08-27T14:36:55.098Z,96696.78
2022-08-27T14:39:26.749Z,96694.03
2022-08-27T14:41:53.989Z,96706.50
2022-08-27T14:44:21.980Z,96699.53
2022-08-27T14:46:49.172Z,96696.31
2022-08-27T14:49:31.885Z,96691.31
2022-08-27T14:51:58.701Z,96693.66
2022-08-27T14:54:28.919Z,96689.50
2022-08-27T14:56:59.898Z,96688.13
2022-08-27T14:59:27.070Z,96688.34
2022-08-27T15:01:54.410Z,96691.19
2022-08-27T15:04:21.074Z,96690.03
2022-08-27T15:06:47.557Z,96684.03
2022-08-27T15:09:14.998Z,96674.50
2022-08-27T15:11:41.747Z,96679.34
2022-08-27T15:14:16.362Z,96673.84
2022-08-27T15:16:43.476Z,96675.66
2022-08-27T15:19:12.156Z,96667.97
2022-08-27T15:21:40.660Z,96671.28
2022-08-27T15:24:24.569Z,96675.44
2022-08-27T15:26:59.452Z,96680.06
2022-08-27T15:29:27.067Z,96678.72
2022-08-27T15:31:54.182Z,96673.91
2022-08-27T15:34:21.210Z,96670.72
2022-08-27T15:36:47.743Z,96670.91
2022-08-27T15:39:14.493Z,96667.38
2022-08-27T15:42:03.040Z,96673.97
2022-08-27T15:44:28.207Z,96673.09
2022-08-27T15:46:54.719Z,96669.63
2022-08-27T15:49:21.496Z,96668.00
2022-08-27T15:51:48.181Z,96670.50
2022-08-27T15:54:14.773Z,96673.25
2022-08-27T15:56:41.362Z,96673.44
2022-08-27T15:59:07.938Z,96663.25
2022-08-27T16:01:36.728Z,96670.84
2022-08-27T16:04:05.007Z,96667.56
2022-08-27T16:06:32.000Z,96669.28
2022-08-27T16:08:58.560Z,96672.25
2022-08-27T16:11:25.131Z,96675.63
2022-08-27T16:13:52.188Z,96675.84
2022-08-27T16:16:27.981Z,96665.28
2022-08-27T16:18:54.849Z,96669.22
2022-08-27T16:21:21.916Z,96667.34
2022-08-27T16:23:49.119Z,96663.63
2022-08-27T16:26:16.547Z,96659.47
2022-08-27T16:28:44.136Z,96662.97
2022-08-27T16:31:13.263Z,96662.94
2022-08-27T16:33:41.747Z,96677.91
2022-08-27T16:36:09.258Z,96668.97
2022-08-27T16:38:36.109Z,96670.44
2022-08-27T16:41:03.672Z,96670.22
2022-08-27T16:43:30.962Z,96670.63
2022-08-27T16:46:00.062Z,96659.44
2022-08-27T16:48:46.521Z,96664.03
2022-08-27T16:51:27.034Z,96667.56
2022-08-27T16:53:53.647Z,96674.19
2022-08-27T16:56:21.147Z,96676.06
2022-08-27T16:58:53.086Z,96672.94
2022-08-27T17:01:22.436Z,96682.03
2022-08-27T17:04:09.026Z,96682.94
2022-08-27T17:06:41.006Z,96681.06
2022-08-27T17:09:10.481Z,96685.41
2022-08-27T17:11:41.692Z,96690.38
2022-08-27T17:14:10.813Z,96693.69
2022-08-27T17:16:40.233Z,96689.31
2022-08-27T17:19:07.582Z,96686.03
2022-08-27T17:21:34.811Z,96689.53
2022-08-27T17:24:02.394Z,96685.56
2022-08-27T17:26:30.894Z,96691.28
2022-08-27T17:28:57.934Z,96698.91
2022-08-27T17:31:30.055Z,96703.03
2022-08-27T17:33:59.638Z,96705.28
2022-08-27T17:36:27.094Z,96708.59
2022-08-27T17:38:54.426Z,96705.03
2022-08-27T17:41:33.593Z,96713.44
2022-08-27T17:44:04.354Z,96710.72
2022-08-27T17:46:31.100Z,96711.72
2022-08-27T17:48:58.145Z,96714.16
2022-08-27T17:51:24.791Z,96717.22
2022-08-27T17:53:59.787Z,96730.38
2022-08-27T17:56:27.682Z,96729.25
2022-08-27T17:58:55.037Z,96735.63
2022-08-27T18:01:28.431Z,96732.94
2022-08-27T18:03:57.293Z,96731.22
2022-08-27T18:06:25.036Z,96740.78
2022-08-27T18:08:51.734Z,96742.84
2022-08-27T18:11:18.759Z,96737.97
2022-08-27T18:13:52.183Z,96755.84
2022-08-27T18:16:19.184Z,96755.50
2022-08-27T18:18:46.261Z,96758.41
2022-08-27T18:21:12.833Z,96757.53
2022-08-27T18:23:40.159Z,96759.28
2022-08-27T18:26:11.817Z,96769.09
2022-08-27T18:28:38.662Z,96765.13
2022-08-27T18:31:08.782Z,96769.53
2022-08-27T18:33:36.555Z,96773.78
2022-08-27T18:36:04.492Z,96777.41
2022-08-27T18:38:31.476Z,96777.78
2022-08-27T18:41:00.414Z,96783.88
2022-08-27T18:43:34.636Z,96791.38
2022-08-27T18:46:02.935Z,96790.47
2022-08-27T18:48:29.604Z,96792.25
2022-08-27T18:50:58.785Z,96791.66
2022-08-27T18:53:27.887Z,96795.91
2022-08-27T18:55:55.481Z,96797.28
2022-08-27T18:58:22.648Z,96799.03
2022-08-27T19:00:53.819Z,96799.34
2022-08-27T19:03:25.093Z,96813.00
2022-08-27T19:05:55.069Z,96819.38
2022-08-27T19:08:23.737Z,96811.25
2022-08-27T19:10:50.661Z,96813.06
2022-08-27T19:13:17.223Z,96811.59
2022-08-27T19:15:51.625Z,96815.13
2022-08-27T19:18:18.541Z,96816.50
2022-08-27T19:20:45.025Z,96807.91
2022-08-27T19:23:11.553Z,96820.94
2022-08-27T19:25:38.198Z,96814.31
2022-08-27T19:28:04.835Z,96812.53
2022-08-27T19:30:31.642Z,96812.47
2022-08-27T19:32:58.367Z,96812.19
2022-08-27T19:35:25.433Z,96810.78
2022-08-27T19:37:53.469Z,96811.88
2022-08-27T19:40:22.279Z,96806.22
2022-08-27T19:42:49.935Z,96803.84
2022-08-27T19:45:23.175Z,96811.25
2022-08-27T19:47:51.201Z,96809.38
2022-08-27T19:50:18.389Z,96813.81
2022-08-27T19:52:46.735Z,96813.63
2022-08-27T19:55:14.487Z,96816.50
2022-08-27T19:57:42.962Z,96821.88
2022-08-27T20:00:11.465Z,96822.69
2022-08-27T20:02:38.526Z,96815.66
2022-08-27T20:05:21.827Z,96833.41
2022-08-27T20:07:52.913Z,96821.19
2022-08-27T20:10:22.758Z,96821.25
2022-08-27T20:12:52.631Z,96819.09
2022-08-27T20:15:23.621Z,96827.69
2022-08-27T20:17:52.383Z,96831.03
2022-08-27T20:20:23.730Z,96833.19
2022-08-27T20:22:50.831Z,96838.53
2022-08-27T20:25:17.599Z,96837.34
2022-08-27T20:27:44.170Z,96834.31
2022-08-27T20:30:13.319Z,96836.84
2022-08-27T20:32:39.913Z,96841.16
2022-08-27T20:35:08.296Z,96843.50
2022-08-27T20:37:38.952Z,96839.00
2022-08-27T20:40:12.205Z,96842.66
2022-08-27T20:42:39.326Z,96849.50
2022-08-27T20:45:11.239Z,96850.84
2022-08-27T20:47:39.611Z,96849.16
2022-08-27T20:50:06.985Z,96843.47
2022-08-27T20:52:34.855Z,96850.13
2022-08-27T20:55:02.044Z,96860.00
2022-08-27T20:57:28.573Z,96851.66
2022-08-27T21:00:13.618Z,96860.53
2022-08-27T21:02:40.523Z,96864.53
2022-08-27T21:05:11.598Z,96859.66
2022-08-27T21:07:38.314Z,96857.00
2022-08-27T21:10:06.592Z,96865.00
2022-08-27T21:12:33.502Z,96872.31
2022-08-27T21:15:01.311Z,96872.81
2022-08-27T21:17:29.601Z,96880.00
2022-08-27T21:19:56.412Z,96886.50
2022-08-27T21:22:23.997Z,96890.84
2022-08-27T21:24:50.858Z,96889.66
2022-08-27T21:27:19.447Z,96892.81
2022-08-27T21:29:45.981Z,96885.81
2022-08-27T21:32:14.287Z,96885.47
2022-08-27T21:34:44.022Z,96896.50
2022-08-27T21:37:12.357Z,96897.69
2022-08-27T21:39:40.177Z,96883.50
2022-08-27T21:42:07.688Z,96888.31
2022-08-27T21:44:34.877Z,96890.16
2022-08-27T21:47:03.597Z,96891.97
2022-08-27T21:49:32.454Z,96889.28
2022-08-27T21:52:00.689Z,96886.78
2022-08-27T21:54:27.732Z,96884.47
2022-08-27T21:56:54.793Z,96884.97
2022-08-27T21:59:21.864Z,96890.78
2022-08-27T22:01:55.824Z,96882.22
2022-08-27T22:04:27.450Z,96881.41
2022-08-27T22:06:57.593Z,96882.63
2022-08-27T22:09:24.259Z,96877.28
2022-08-27T22:11:50.845Z,96876.63
2022-08-27T22:14:17.676Z,96877.81
2022-08-27T22:16:44.206Z,96873.47
2022-08-27T22:19:10.734Z,96876.91
2022-08-27T22:21:37.716Z,96873.06
2022-08-27T22:24:04.555Z,96877.75
2022-08-27T22:26:31.858Z,96870.91
2022-08-27T22:28:58.465Z,96881.56
2022-08-27T22:31:25.217Z,96878.06
2022-08-27T22:33:52.458Z,96877.59
2022-08-27T22:36:19.674Z,96872.06
2022-08-27T22:38:46.437Z,96881.22
2022-08-27T22:41:14.823Z,96875.56
2022-08-27T22:43:45.472Z,96876.72
2022-08-27T22:46:12.374Z,96878.56
2022-08-27T22:48:38.976Z,96877.91
2022-08-27T22:51:05.515Z,96871.22
2022-08-27T22:53:32.195Z,96873.41
2022-08-27T22:55:59.653Z,96870.03
2022-08-27T22:58:26.380Z,96871.88
2022-08-27T23:00:54.808Z,96861.84
2022-08-27T23:03:21.844Z,96870.53
2022-08-27T23:05:49.033Z,96874.03
2022-08-27T23:08:15.903Z,96867.22
2022-08-27T23:10:43.441Z,96877.22
2022-08-27T23:13:11.525Z,96871.53
2022-08-27T23:15:38.732Z,96865.69
2022-08-27T23:18:05.487Z,96864.50
2022-08-27T23:20:32.444Z,96860.97
2022-08-27T23:22:59.030Z,96866.47
2022-08-27T23:25:45.536Z,96871.44
2022-08-27T23:28:15.106Z,96875.78
2022-08-27T23:30:42.683Z,96871.44
2022-08-27T23:33:09.678Z,96865.47
2022-08-27T23:35:36.305Z,96869.31
2022-08-27T23:38:03.435Z,96877.81
2022-08-27T23:40:30.395Z,96878.63
2022-08-27T23:42:57.052Z,96883.59
2022-08-27T23:45:25.598Z,96881.72
2022-08-27T23:47:52.435Z,96876.72
2022-08-27T23:50:20.020Z,96880.00
2022-08-27T23:52:48.428Z,96883.38
2022-08-27T23:55:15.019Z,96879.53
2022-08-27T23:57:41.612Z,96877.69
